sensor_id;sensor_type;location;lat;lon;timestamp;P1;durP1;ratioP1;P2;durP2;ratioP2
5137;SDS011;53959;53.626;11.410;2024-02-21T00:01:46;1248.50;;;781.70;;
5137;SDS011;53959;53.626;11.410;2024-02-21T00:04:12;1220.20;;;770.90;;
5137;SDS011;53959;53.626;11.410;2024-02-21T00:06:37;1253.07;;;783.60;;
5137;SDS011;53959;53.626;11.410;2024-02-21T00:09:03;1257.87;;;786.90;;
5137;SDS011;53959;53.626;11.410;2024-02-21T00:11:28;1260.20;;;787.90;;
5137;SDS011;53959;53.626;11.410;2024-02-21T00:13:54;1250.47;;;783.30;;
5137;SDS011;53959;53.626;11.410;2024-02-21T00:16:19;1257.73;;;784.83;;
5137;SDS011;53959;53.626;11.410;2024-02-21T00:18:44;1266.70;;;798.03;;
5137;SDS011;53959;53.626;11.410;2024-02-21T00:21:10;1257.23;;;790.50;;
5137;SDS011;53959;53.626;11.410;2024-02-21T00:23:40;1263.17;;;791.47;;
5137;SDS011;53959;53.626;11.410;2024-02-21T00:26:05;1257.53;;;790.43;;
5137;SDS011;53959;53.626;11.410;2024-02-21T00:28:31;1262.27;;;794.60;;
5137;SDS011;53959;53.626;11.410;2024-02-21T00:30:56;1260.50;;;788.10;;
5137;SDS011;53959;53.626;11.410;2024-02-21T00:33:22;1249.03;;;782.60;;
5137;SDS011;53959;53.626;11.410;2024-02-21T00:35:47;1261.90;;;788.90;;
5137;SDS011;53959;53.626;11.410;2024-02-21T00:38:12;1255.53;;;784.73;;
5137;SDS011;53959;53.626;11.410;2024-02-21T00:40:38;1248.50;;;785.77;;
5137;SDS011;53959;53.626;11.410;2024-02-21T00:43:03;1252.43;;;787.50;;
5137;SDS011;53959;53.626;11.410;2024-02-21T00:45:28;1299.03;;;802.63;;
5137;SDS011;53959;53.626;11.410;2024-02-21T00:47:54;1307.10;;;800.53;;
5137;SDS011;53959;53.626;11.410;2024-02-21T00:50:19;1329.83;;;809.10;;
5137;SDS011;53959;53.626;11.410;2024-02-21T00:52:44;1269.53;;;788.27;;
5137;SDS011;53959;53.626;11.410;2024-02-21T00:55:10;1275.03;;;795.93;;
5137;SDS011;53959;53.626;11.410;2024-02-21T00:57:35;1283.67;;;789.00;;
5137;SDS011;53959;53.626;11.410;2024-02-21T01:00:01;1297.63;;;804.80;;
5137;SDS011;53959;53.626;11.410;2024-02-21T01:02:27;1262.50;;;786.40;;
5137;SDS011;53959;53.626;11.410;2024-02-21T01:04:53;1277.53;;;794.83;;
5137;SDS011;53959;53.626;11.410;2024-02-21T01:07:18;1282.67;;;795.77;;
5137;SDS011;53959;53.626;11.410;2024-02-21T01:09:43;1268.90;;;784.00;;
5137;SDS011;53959;53.626;11.410;2024-02-21T01:12:09;1279.70;;;793.90;;
5137;SDS011;53959;53.626;11.410;2024-02-21T01:14:34;1283.57;;;789.33;;
5137;SDS011;53959;53.626;11.410;2024-02-21T01:16:59;1280.53;;;790.53;;
5137;SDS011;53959;53.626;11.410;2024-02-21T01:19:26;1270.83;;;791.17;;
5137;SDS011;53959;53.626;11.410;2024-02-21T01:21:51;1276.70;;;795.00;;
5137;SDS011;53959;53.626;11.410;2024-02-21T01:24:17;1260.50;;;782.40;;
5137;SDS011;53959;53.626;11.410;2024-02-21T01:26:42;1301.40;;;790.00;;
5137;SDS011;53959;53.626;11.410;2024-02-21T01:29:07;1265.40;;;787.93;;
5137;SDS011;53959;53.626;11.410;2024-02-21T01:31:33;1274.10;;;789.30;;
5137;SDS011;53959;53.626;11.410;2024-02-21T01:33:58;1287.40;;;795.40;;
5137;SDS011;53959;53.626;11.410;2024-02-21T01:36:24;1263.57;;;790.93;;
5137;SDS011;53959;53.626;11.410;2024-02-21T01:38:49;1240.07;;;777.13;;
5137;SDS011;53959;53.626;11.410;2024-02-21T01:41:14;1253.07;;;784.00;;
5137;SDS011;53959;53.626;11.410;2024-02-21T01:43:41;1260.57;;;786.83;;
5137;SDS011;53959;53.626;11.410;2024-02-21T01:46:06;1294.57;;;793.13;;
5137;SDS011;53959;53.626;11.410;2024-02-21T01:48:32;1300.83;;;790.90;;
5137;SDS011;53959;53.626;11.410;2024-02-21T01:50:58;1282.03;;;794.93;;
5137;SDS011;53959;53.626;11.410;2024-02-21T01:53:30;1294.87;;;792.57;;
5137;SDS011;53959;53.626;11.410;2024-02-21T01:56:00;1256.77;;;785.60;;
5137;SDS011;53959;53.626;11.410;2024-02-21T01:58:26;1262.90;;;782.77;;
5137;SDS011;53959;53.626;11.410;2024-02-21T02:00:54;1275.23;;;785.20;;
5137;SDS011;53959;53.626;11.410;2024-02-21T02:03:21;1274.60;;;785.93;;
5137;SDS011;53959;53.626;11.410;2024-02-21T02:05:48;1264.27;;;783.07;;
5137;SDS011;53959;53.626;11.410;2024-02-21T02:08:15;1274.13;;;786.53;;
5137;SDS011;53959;53.626;11.410;2024-02-21T02:10:41;932.50;;;662.80;;
5137;SDS011;53959;53.626;11.410;2024-02-21T02:13:07;914.00;;;656.07;;
5137;SDS011;53959;53.626;11.410;2024-02-21T02:15:42;947.43;;;675.60;;
5137;SDS011;53959;53.626;11.410;2024-02-21T02:18:09;880.77;;;640.83;;
5137;SDS011;53959;53.626;11.410;2024-02-21T02:20:35;929.27;;;665.67;;
5137;SDS011;53959;53.626;11.410;2024-02-21T02:23:09;870.57;;;635.00;;
5137;SDS011;53959;53.626;11.410;2024-02-21T02:25:36;853.60;;;628.23;;
5137;SDS011;53959;53.626;11.410;2024-02-21T02:28:06;864.73;;;637.83;;
5137;SDS011;53959;53.626;11.410;2024-02-21T02:30:35;869.43;;;639.43;;
5137;SDS011;53959;53.626;11.410;2024-02-21T02:33:04;906.63;;;660.10;;
5137;SDS011;53959;53.626;11.410;2024-02-21T02:35:30;894.03;;;651.10;;
5137;SDS011;53959;53.626;11.410;2024-02-21T02:37:56;843.10;;;620.93;;
5137;SDS011;53959;53.626;11.410;2024-02-21T02:40:21;869.10;;;636.40;;
5137;SDS011;53959;53.626;11.410;2024-02-21T02:42:47;906.67;;;639.10;;
5137;SDS011;53959;53.626;11.410;2024-02-21T02:45:14;942.90;;;653.80;;
5137;SDS011;53959;53.626;11.410;2024-02-21T02:47:43;946.17;;;666.57;;
5137;SDS011;53959;53.626;11.410;2024-02-21T02:50:11;949.87;;;667.80;;
5137;SDS011;53959;53.626;11.410;2024-02-21T02:52:36;935.80;;;661.63;;
5137;SDS011;53959;53.626;11.410;2024-02-21T02:55:02;949.27;;;671.80;;
5137;SDS011;53959;53.626;11.410;2024-02-21T02:57:28;888.03;;;628.70;;
5137;SDS011;53959;53.626;11.410;2024-02-21T02:59:53;874.50;;;635.80;;
5137;SDS011;53959;53.626;11.410;2024-02-21T03:02:19;898.57;;;638.30;;
5137;SDS011;53959;53.626;11.410;2024-02-21T03:04:44;877.77;;;631.07;;
5137;SDS011;53959;53.626;11.410;2024-02-21T03:07:09;898.50;;;650.60;;
5137;SDS011;53959;53.626;11.410;2024-02-21T03:09:36;898.50;;;647.47;;
5137;SDS011;53959;53.626;11.410;2024-02-21T03:12:03;900.40;;;648.57;;
5137;SDS011;53959;53.626;11.410;2024-02-21T03:14:28;891.10;;;643.07;;
5137;SDS011;53959;53.626;11.410;2024-02-21T03:16:54;914.77;;;654.80;;
5137;SDS011;53959;53.626;11.410;2024-02-21T03:19:19;922.00;;;663.40;;
5137;SDS011;53959;53.626;11.410;2024-02-21T03:21:45;903.60;;;650.97;;
5137;SDS011;53959;53.626;11.410;2024-02-21T03:24:10;916.37;;;659.10;;
5137;SDS011;53959;53.626;11.410;2024-02-21T03:26:36;909.90;;;654.20;;
5137;SDS011;53959;53.626;11.410;2024-02-21T03:29:01;895.50;;;637.30;;
5137;SDS011;53959;53.626;11.410;2024-02-21T03:31:26;949.30;;;676.57;;
5137;SDS011;53959;53.626;11.410;2024-02-21T03:33:52;919.77;;;657.60;;
5137;SDS011;53959;53.626;11.410;2024-02-21T03:36:18;909.67;;;650.97;;
5137;SDS011;53959;53.626;11.410;2024-02-21T03:38:43;916.13;;;650.27;;
5137;SDS011;53959;53.626;11.410;2024-02-21T03:41:08;936.37;;;661.70;;
5137;SDS011;53959;53.626;11.410;2024-02-21T03:43:34;953.47;;;668.00;;
5137;SDS011;53959;53.626;11.410;2024-02-21T03:45:59;944.87;;;674.13;;
5137;SDS011;53959;53.626;11.410;2024-02-21T03:48:24;909.97;;;649.00;;
5137;SDS011;53959;53.626;11.410;2024-02-21T03:50:50;957.93;;;680.40;;
5137;SDS011;53959;53.626;11.410;2024-02-21T03:53:16;963.40;;;681.50;;
5137;SDS011;53959;53.626;11.410;2024-02-21T03:55:41;951.83;;;662.83;;
5137;SDS011;53959;53.626;11.410;2024-02-21T03:58:06;976.37;;;688.90;;
5137;SDS011;53959;53.626;11.410;2024-02-21T04:00:32;948.60;;;670.27;;
5137;SDS011;53959;53.626;11.410;2024-02-21T04:02:57;979.20;;;690.27;;
5137;SDS011;53959;53.626;11.410;2024-02-21T04:05:22;976.33;;;684.73;;
5137;SDS011;53959;53.626;11.410;2024-02-21T04:07:48;914.87;;;660.07;;
5137;SDS011;53959;53.626;11.410;2024-02-21T04:10:13;927.53;;;669.30;;
5137;SDS011;53959;53.626;11.410;2024-02-21T04:12:38;948.23;;;670.53;;
5137;SDS011;53959;53.626;11.410;2024-02-21T04:15:04;895.83;;;633.47;;
5137;SDS011;53959;53.626;11.410;2024-02-21T04:17:29;910.50;;;655.77;;
5137;SDS011;53959;53.626;11.410;2024-02-21T04:20:01;904.93;;;646.77;;
5137;SDS011;53959;53.626;11.410;2024-02-21T04:22:33;934.20;;;664.10;;
5137;SDS011;53959;53.626;11.410;2024-02-21T04:25:02;982.90;;;687.67;;
5137;SDS011;53959;53.626;11.410;2024-02-21T04:27:27;935.67;;;661.87;;
5137;SDS011;53959;53.626;11.410;2024-02-21T04:29:53;919.73;;;657.13;;
5137;SDS011;53959;53.626;11.410;2024-02-21T04:32:18;906.47;;;649.37;;
5137;SDS011;53959;53.626;11.410;2024-02-21T04:34:44;923.73;;;661.83;;
5137;SDS011;53959;53.626;11.410;2024-02-21T04:37:09;922.33;;;656.97;;
5137;SDS011;53959;53.626;11.410;2024-02-21T04:39:35;919.43;;;660.53;;
5137;SDS011;53959;53.626;11.410;2024-02-21T04:42:00;923.43;;;655.50;;
5137;SDS011;53959;53.626;11.410;2024-02-21T04:44:26;915.37;;;650.53;;
5137;SDS011;53959;53.626;11.410;2024-02-21T04:46:51;915.77;;;652.40;;
5137;SDS011;53959;53.626;11.410;2024-02-21T04:49:17;917.87;;;656.40;;
5137;SDS011;53959;53.626;11.410;2024-02-21T04:51:42;924.70;;;658.47;;
5137;SDS011;53959;53.626;11.410;2024-02-21T04:54:08;893.23;;;642.30;;
5137;SDS011;53959;53.626;11.410;2024-02-21T04:56:34;772.43;;;566.87;;
5137;SDS011;53959;53.626;11.410;2024-02-21T04:58:59;737.07;;;546.30;;
5137;SDS011;53959;53.626;11.410;2024-02-21T05:01:24;652.60;;;499.87;;
5137;SDS011;53959;53.626;11.410;2024-02-21T05:03:50;662.00;;;506.23;;
5137;SDS011;53959;53.626;11.410;2024-02-21T05:08:40;677.10;;;519.90;;
5137;SDS011;53959;53.626;11.410;2024-02-21T05:11:06;620.93;;;482.50;;
5137;SDS011;53959;53.626;11.410;2024-02-21T05:13:32;702.57;;;534.17;;
5137;SDS011;53959;53.626;11.410;2024-02-21T05:15:57;729.00;;;549.33;;
5137;SDS011;53959;53.626;11.410;2024-02-21T05:18:26;659.43;;;505.50;;
5137;SDS011;53959;53.626;11.410;2024-02-21T05:20:52;673.37;;;515.20;;
5137;SDS011;53959;53.626;11.410;2024-02-21T05:23:17;620.03;;;479.70;;
5137;SDS011;53959;53.626;11.410;2024-02-21T05:25:42;634.63;;;490.60;;
5137;SDS011;53959;53.626;11.410;2024-02-21T05:28:08;651.73;;;503.87;;
5137;SDS011;53959;53.626;11.410;2024-02-21T05:30:33;647.37;;;499.03;;
5137;SDS011;53959;53.626;11.410;2024-02-21T05:32:59;646.87;;;495.67;;
5137;SDS011;53959;53.626;11.410;2024-02-21T05:35:25;652.37;;;499.20;;
5137;SDS011;53959;53.626;11.410;2024-02-21T05:37:54;678.53;;;515.93;;
5137;SDS011;53959;53.626;11.410;2024-02-21T05:40:19;685.20;;;517.40;;
5137;SDS011;53959;53.626;11.410;2024-02-21T05:42:44;665.83;;;507.87;;
5137;SDS011;53959;53.626;11.410;2024-02-21T05:45:10;675.40;;;513.93;;
5137;SDS011;53959;53.626;11.410;2024-02-21T05:47:35;646.70;;;494.20;;
5137;SDS011;53959;53.626;11.410;2024-02-21T05:50:00;678.23;;;516.37;;
5137;SDS011;53959;53.626;11.410;2024-02-21T05:52:26;673.43;;;514.07;;
5137;SDS011;53959;53.626;11.410;2024-02-21T05:54:51;660.67;;;505.33;;
5137;SDS011;53959;53.626;11.410;2024-02-21T05:57:17;678.60;;;517.60;;
5137;SDS011;53959;53.626;11.410;2024-02-21T05:59:43;707.23;;;539.00;;
5137;SDS011;53959;53.626;11.410;2024-02-21T06:02:09;680.47;;;519.70;;
5137;SDS011;53959;53.626;11.410;2024-02-21T06:04:34;718.90;;;546.70;;
5137;SDS011;53959;53.626;11.410;2024-02-21T06:07:00;709.73;;;537.37;;
5137;SDS011;53959;53.626;11.410;2024-02-21T06:09:26;715.77;;;540.17;;
5137;SDS011;53959;53.626;11.410;2024-02-21T06:11:52;733.87;;;552.30;;
5137;SDS011;53959;53.626;11.410;2024-02-21T06:14:18;724.80;;;547.17;;
5137;SDS011;53959;53.626;11.410;2024-02-21T06:16:43;738.03;;;555.37;;
5137;SDS011;53959;53.626;11.410;2024-02-21T06:19:09;761.33;;;568.80;;
5137;SDS011;53959;53.626;11.410;2024-02-21T06:21:34;763.73;;;567.93;;
5137;SDS011;53959;53.626;11.410;2024-02-21T06:24:01;755.03;;;563.40;;
5137;SDS011;53959;53.626;11.410;2024-02-21T06:26:26;745.40;;;557.40;;
5137;SDS011;53959;53.626;11.410;2024-02-21T06:28:51;739.23;;;547.70;;
5137;SDS011;53959;53.626;11.410;2024-02-21T06:31:17;780.80;;;579.67;;
5137;SDS011;53959;53.626;11.410;2024-02-21T06:33:43;837.10;;;624.20;;
5137;SDS011;53959;53.626;11.410;2024-02-21T06:36:08;821.10;;;608.53;;
5137;SDS011;53959;53.626;11.410;2024-02-21T06:38:33;827.93;;;603.17;;
5137;SDS011;53959;53.626;11.410;2024-02-21T06:40:59;943.03;;;677.30;;
5137;SDS011;53959;53.626;11.410;2024-02-21T06:43:25;796.87;;;587.17;;
5137;SDS011;53959;53.626;11.410;2024-02-21T06:45:51;809.53;;;598.60;;
5137;SDS011;53959;53.626;11.410;2024-02-21T06:48:17;825.03;;;623.83;;
5137;SDS011;53959;53.626;11.410;2024-02-21T06:50:43;831.40;;;628.20;;
5137;SDS011;53959;53.626;11.410;2024-02-21T06:53:09;834.57;;;629.47;;
5137;SDS011;53959;53.626;11.410;2024-02-21T06:55:35;881.63;;;660.47;;
5137;SDS011;53959;53.626;11.410;2024-02-21T06:58:00;899.77;;;665.23;;
5137;SDS011;53959;53.626;11.410;2024-02-21T07:00:27;927.97;;;679.30;;
5137;SDS011;53959;53.626;11.410;2024-02-21T07:02:55;927.60;;;673.93;;
5137;SDS011;53959;53.626;11.410;2024-02-21T07:05:21;1021.97;;;705.17;;
5137;SDS011;53959;53.626;11.410;2024-02-21T07:07:47;1048.57;;;721.70;;
5137;SDS011;53959;53.626;11.410;2024-02-21T07:10:12;957.50;;;680.07;;
5137;SDS011;53959;53.626;11.410;2024-02-21T07:12:38;934.17;;;660.67;;
5137;SDS011;53959;53.626;11.410;2024-02-21T07:15:07;874.00;;;643.20;;
5137;SDS011;53959;53.626;11.410;2024-02-21T07:17:32;841.77;;;628.57;;
5137;SDS011;53959;53.626;11.410;2024-02-21T07:19:58;861.30;;;632.60;;
5137;SDS011;53959;53.626;11.410;2024-02-21T07:22:24;1170.83;;;782.30;;
5137;SDS011;53959;53.626;11.410;2024-02-21T07:24:49;1257.60;;;824.50;;
5137;SDS011;53959;53.626;11.410;2024-02-21T07:27:15;1349.27;;;834.27;;
5137;SDS011;53959;53.626;11.410;2024-02-21T07:29:41;1348.13;;;831.60;;
5137;SDS011;53959;53.626;11.410;2024-02-21T07:32:06;1397.80;;;828.07;;
5137;SDS011;53959;53.626;11.410;2024-02-21T07:34:31;1358.53;;;817.10;;
5137;SDS011;53959;53.626;11.410;2024-02-21T07:36:57;1413.13;;;832.30;;
5137;SDS011;53959;53.626;11.410;2024-02-21T07:39:22;1375.17;;;820.73;;
5137;SDS011;53959;53.626;11.410;2024-02-21T07:41:47;1368.27;;;815.10;;
5137;SDS011;53959;53.626;11.410;2024-02-21T07:44:14;1316.60;;;803.23;;
5137;SDS011;53959;53.626;11.410;2024-02-21T07:46:40;1367.57;;;819.20;;
5137;SDS011;53959;53.626;11.410;2024-02-21T07:49:05;1370.23;;;823.10;;
5137;SDS011;53959;53.626;11.410;2024-02-21T07:51:30;1287.77;;;817.00;;
5137;SDS011;53959;53.626;11.410;2024-02-21T07:53:56;1319.87;;;803.63;;
5137;SDS011;53959;53.626;11.410;2024-02-21T07:56:21;1285.63;;;789.90;;
5137;SDS011;53959;53.626;11.410;2024-02-21T07:58:46;1272.90;;;790.17;;
5137;SDS011;53959;53.626;11.410;2024-02-21T08:01:17;1190.70;;;755.93;;
5137;SDS011;53959;53.626;11.410;2024-02-21T08:03:46;835.10;;;626.17;;
5137;SDS011;53959;53.626;11.410;2024-02-21T08:06:12;1108.03;;;735.57;;
5137;SDS011;53959;53.626;11.410;2024-02-21T08:08:38;989.40;;;677.90;;
5137;SDS011;53959;53.626;11.410;2024-02-21T08:11:03;850.63;;;636.03;;
5137;SDS011;53959;53.626;11.410;2024-02-21T08:13:29;1288.87;;;791.40;;
5137;SDS011;53959;53.626;11.410;2024-02-21T08:15:54;1117.47;;;726.40;;
5137;SDS011;53959;53.626;11.410;2024-02-21T08:18:19;1240.47;;;787.53;;
5137;SDS011;53959;53.626;11.410;2024-02-21T08:20:45;1205.63;;;772.87;;
5137;SDS011;53959;53.626;11.410;2024-02-21T08:23:10;984.80;;;698.40;;
5137;SDS011;53959;53.626;11.410;2024-02-21T08:25:36;904.80;;;659.23;;
5137;SDS011;53959;53.626;11.410;2024-02-21T08:28:01;884.50;;;653.17;;
5137;SDS011;53959;53.626;11.410;2024-02-21T08:30:27;905.40;;;664.00;;
5137;SDS011;53959;53.626;11.410;2024-02-21T08:32:52;895.83;;;656.10;;
5137;SDS011;53959;53.626;11.410;2024-02-21T08:35:21;900.23;;;655.13;;
5137;SDS011;53959;53.626;11.410;2024-02-21T08:37:49;887.53;;;649.63;;
5137;SDS011;53959;53.626;11.410;2024-02-21T08:40:14;991.73;;;693.17;;
5137;SDS011;53959;53.626;11.410;2024-02-21T08:42:43;991.83;;;699.40;;
5137;SDS011;53959;53.626;11.410;2024-02-21T08:45:09;1035.33;;;709.80;;
5137;SDS011;53959;53.626;11.410;2024-02-21T08:47:34;1009.13;;;703.93;;
5137;SDS011;53959;53.626;11.410;2024-02-21T08:50:03;1028.30;;;716.50;;
5137;SDS011;53959;53.626;11.410;2024-02-21T08:52:28;1017.13;;;709.90;;
5137;SDS011;53959;53.626;11.410;2024-02-21T08:54:53;975.77;;;696.40;;
5137;SDS011;53959;53.626;11.410;2024-02-21T08:57:19;1007.43;;;708.17;;
5137;SDS011;53959;53.626;11.410;2024-02-21T08:59:45;1029.93;;;713.57;;
5137;SDS011;53959;53.626;11.410;2024-02-21T09:02:12;1043.93;;;722.40;;
5137;SDS011;53959;53.626;11.410;2024-02-21T09:04:38;1022.67;;;710.70;;
5137;SDS011;53959;53.626;11.410;2024-02-21T09:07:03;982.90;;;688.90;;
5137;SDS011;53959;53.626;11.410;2024-02-21T09:09:29;1008.33;;;705.27;;
5137;SDS011;53959;53.626;11.410;2024-02-21T09:11:54;995.27;;;696.00;;
5137;SDS011;53959;53.626;11.410;2024-02-21T09:14:19;1000.83;;;698.20;;
5137;SDS011;53959;53.626;11.410;2024-02-21T09:16:45;880.23;;;641.43;;
5137;SDS011;53959;53.626;11.410;2024-02-21T09:19:10;963.97;;;694.97;;
5137;SDS011;53959;53.626;11.410;2024-02-21T09:21:39;871.10;;;632.00;;
5137;SDS011;53959;53.626;11.410;2024-02-21T09:24:05;918.20;;;659.73;;
5137;SDS011;53959;53.626;11.410;2024-02-21T09:26:31;884.40;;;635.63;;
5137;SDS011;53959;53.626;11.410;2024-02-21T09:28:56;941.93;;;681.93;;
5137;SDS011;53959;53.626;11.410;2024-02-21T09:31:22;929.03;;;685.27;;
5137;SDS011;53959;53.626;11.410;2024-02-21T09:33:47;961.63;;;683.80;;
5137;SDS011;53959;53.626;11.410;2024-02-21T09:36:12;1085.30;;;762.47;;
5137;SDS011;53959;53.626;11.410;2024-02-21T09:38:39;1121.30;;;791.80;;
5137;SDS011;53959;53.626;11.410;2024-02-21T09:41:15;1053.47;;;758.10;;
5137;SDS011;53959;53.626;11.410;2024-02-21T09:43:42;1164.20;;;807.07;;
5137;SDS011;53959;53.626;11.410;2024-02-21T09:46:13;933.00;;;674.67;;
5137;SDS011;53959;53.626;11.410;2024-02-21T09:48:56;919.07;;;664.23;;
5137;SDS011;53959;53.626;11.410;2024-02-21T09:51:30;1131.27;;;777.03;;
5137;SDS011;53959;53.626;11.410;2024-02-21T09:53:57;953.37;;;678.43;;
5137;SDS011;53959;53.626;11.410;2024-02-21T09:56:24;950.30;;;678.57;;
5137;SDS011;53959;53.626;11.410;2024-02-21T09:58:50;1150.30;;;809.97;;
5137;SDS011;53959;53.626;11.410;2024-02-21T10:01:15;1171.67;;;800.43;;
5137;SDS011;53959;53.626;11.410;2024-02-21T10:03:41;1214.07;;;817.07;;
5137;SDS011;53959;53.626;11.410;2024-02-21T10:06:08;1256.53;;;817.70;;
5137;SDS011;53959;53.626;11.410;2024-02-21T10:08:34;1257.67;;;822.63;;
5137;SDS011;53959;53.626;11.410;2024-02-21T10:10:59;1375.80;;;832.07;;
5137;SDS011;53959;53.626;11.410;2024-02-21T10:13:26;1356.20;;;861.30;;
5137;SDS011;53959;53.626;11.410;2024-02-21T10:16:05;1375.00;;;853.30;;
5137;SDS011;53959;53.626;11.410;2024-02-21T10:18:32;1317.10;;;819.43;;
5137;SDS011;53959;53.626;11.410;2024-02-21T10:21:04;1147.47;;;766.00;;
5137;SDS011;53959;53.626;11.410;2024-02-21T10:23:44;998.83;;;689.67;;
5137;SDS011;53959;53.626;11.410;2024-02-21T10:26:10;1131.13;;;766.33;;
5137;SDS011;53959;53.626;11.410;2024-02-21T10:28:36;1129.87;;;781.00;;
5137;SDS011;53959;53.626;11.410;2024-02-21T10:31:07;1140.30;;;781.47;;
5137;SDS011;53959;53.626;11.410;2024-02-21T10:33:32;1266.73;;;846.20;;
5137;SDS011;53959;53.626;11.410;2024-02-21T10:36:05;1261.47;;;833.47;;
5137;SDS011;53959;53.626;11.410;2024-02-21T10:38:33;1287.47;;;858.97;;
5137;SDS011;53959;53.626;11.410;2024-02-21T10:40:58;1336.97;;;855.40;;
5137;SDS011;53959;53.626;11.410;2024-02-21T10:43:28;1334.00;;;864.53;;
5137;SDS011;53959;53.626;11.410;2024-02-21T10:45:58;1309.10;;;823.37;;
5137;SDS011;53959;53.626;11.410;2024-02-21T10:48:29;1367.20;;;844.23;;
5137;SDS011;53959;53.626;11.410;2024-02-21T10:51:03;1459.53;;;862.53;;
5137;SDS011;53959;53.626;11.410;2024-02-21T10:59:02;1489.93;;;855.70;;
5137;SDS011;53959;53.626;11.410;2024-02-21T11:01:29;1428.87;;;856.47;;
5137;SDS011;53959;53.626;11.410;2024-02-21T11:04:03;1490.87;;;851.40;;
5137;SDS011;53959;53.626;11.410;2024-02-21T11:06:30;1449.73;;;833.33;;
5137;SDS011;53959;53.626;11.410;2024-02-21T11:11:26;1471.00;;;848.27;;
5137;SDS011;53959;53.626;11.410;2024-02-21T11:13:52;1550.83;;;867.83;;
5137;SDS011;53959;53.626;11.410;2024-02-21T11:16:22;1507.90;;;839.20;;
5137;SDS011;53959;53.626;11.410;2024-02-21T11:18:48;1701.23;;;843.87;;
5137;SDS011;53959;53.626;11.410;2024-02-21T11:21:13;1755.47;;;850.33;;
5137;SDS011;53959;53.626;11.410;2024-02-21T11:23:39;1653.00;;;836.20;;
5137;SDS011;53959;53.626;11.410;2024-02-21T11:26:07;1734.77;;;829.53;;
5137;SDS011;53959;53.626;11.410;2024-02-21T11:28:33;1704.33;;;828.77;;
5137;SDS011;53959;53.626;11.410;2024-02-21T11:31:08;1855.40;;;849.00;;
5137;SDS011;53959;53.626;11.410;2024-02-21T11:33:34;1577.20;;;819.73;;
5137;SDS011;53959;53.626;11.410;2024-02-21T11:36:00;1580.60;;;818.13;;
5137;SDS011;53959;53.626;11.410;2024-02-21T11:38:26;1713.03;;;845.37;;
5137;SDS011;53959;53.626;11.410;2024-02-21T11:40:51;1714.83;;;845.53;;
5137;SDS011;53959;53.626;11.410;2024-02-21T11:43:16;1295.80;;;764.00;;
5137;SDS011;53959;53.626;11.410;2024-02-21T11:45:42;1066.17;;;723.17;;
5137;SDS011;53959;53.626;11.410;2024-02-21T11:48:07;1050.37;;;712.00;;
5137;SDS011;53959;53.626;11.410;2024-02-21T11:50:34;1064.80;;;719.83;;
5137;SDS011;53959;53.626;11.410;2024-02-21T11:53:00;1073.23;;;726.97;;
5137;SDS011;53959;53.626;11.410;2024-02-21T11:55:26;1061.40;;;718.70;;
5137;SDS011;53959;53.626;11.410;2024-02-21T11:57:51;1091.17;;;731.47;;
5137;SDS011;53959;53.626;11.410;2024-02-21T12:00:17;1083.93;;;720.97;;
5137;SDS011;53959;53.626;11.410;2024-02-21T12:02:47;1075.60;;;720.27;;
5137;SDS011;53959;53.626;11.410;2024-02-21T12:05:13;1069.03;;;719.73;;
5137;SDS011;53959;53.626;11.410;2024-02-21T12:07:39;1081.17;;;723.37;;
5137;SDS011;53959;53.626;11.410;2024-02-21T12:10:09;1084.97;;;727.83;;
5137;SDS011;53959;53.626;11.410;2024-02-21T12:12:35;1163.50;;;752.40;;
5137;SDS011;53959;53.626;11.410;2024-02-21T12:15:03;1342.83;;;803.83;;
5137;SDS011;53959;53.626;11.410;2024-02-21T12:17:30;1155.13;;;747.43;;
5137;SDS011;53959;53.626;11.410;2024-02-21T12:19:56;1119.23;;;735.13;;
5137;SDS011;53959;53.626;11.410;2024-02-21T12:22:22;1118.37;;;730.87;;
5137;SDS011;53959;53.626;11.410;2024-02-21T12:24:47;1068.77;;;716.73;;
5137;SDS011;53959;53.626;11.410;2024-02-21T12:27:13;1094.20;;;725.60;;
5137;SDS011;53959;53.626;11.410;2024-02-21T12:29:38;1055.13;;;709.87;;
5137;SDS011;53959;53.626;11.410;2024-02-21T12:32:04;1057.90;;;712.97;;
5137;SDS011;53959;53.626;11.410;2024-02-21T12:34:30;1075.60;;;716.93;;
5137;SDS011;53959;53.626;11.410;2024-02-21T12:36:58;1078.60;;;721.30;;
5137;SDS011;53959;53.626;11.410;2024-02-21T12:39:24;1074.73;;;719.87;;
5137;SDS011;53959;53.626;11.410;2024-02-21T12:41:49;1096.67;;;735.97;;
5137;SDS011;53959;53.626;11.410;2024-02-21T12:44:14;1127.87;;;733.63;;
5137;SDS011;53959;53.626;11.410;2024-02-21T12:46:41;1164.60;;;758.20;;
5137;SDS011;53959;53.626;11.410;2024-02-21T12:49:07;1164.00;;;762.23;;
5137;SDS011;53959;53.626;11.410;2024-02-21T12:51:33;1091.20;;;724.53;;
5137;SDS011;53959;53.626;11.410;2024-02-21T12:53:59;1187.03;;;742.40;;
5137;SDS011;53959;53.626;11.410;2024-02-21T12:56:25;820.47;;;591.47;;
5137;SDS011;53959;53.626;11.410;2024-02-21T14:06:52;740.28;;;527.90;;
5137;SDS011;53959;53.626;11.410;2024-02-21T15:00:15;765.30;;;545.20;;
5137;SDS011;53959;53.626;11.410;2024-02-21T15:05:08;992.45;;;732.92;;
5137;SDS011;53959;53.626;11.410;2024-02-21T15:14:50;719.83;;;522.33;;
5137;SDS011;53959;53.626;11.410;2024-02-21T15:19:41;1021.67;;;746.13;;
5137;SDS011;53959;53.626;11.410;2024-02-21T15:22:12;720.40;;;523.90;;
5137;SDS011;53959;53.626;11.410;2024-02-21T15:24:41;715.37;;;523.13;;
5137;SDS011;53959;53.626;11.410;2024-02-21T15:27:07;719.87;;;523.53;;
5137;SDS011;53959;53.626;11.410;2024-02-21T15:29:34;715.90;;;522.07;;
5137;SDS011;53959;53.626;11.410;2024-02-21T15:32:01;713.20;;;519.97;;
5137;SDS011;53959;53.626;11.410;2024-02-21T15:34:27;714.43;;;520.07;;
5137;SDS011;53959;53.626;11.410;2024-02-21T15:36:53;719.70;;;527.43;;
5137;SDS011;53959;53.626;11.410;2024-02-21T15:39:18;726.40;;;528.97;;
5137;SDS011;53959;53.626;11.410;2024-02-21T15:41:43;706.73;;;519.43;;
5137;SDS011;53959;53.626;11.410;2024-02-21T15:44:09;696.73;;;516.50;;
5137;SDS011;53959;53.626;11.410;2024-02-21T15:46:34;713.63;;;525.47;;
5137;SDS011;53959;53.626;11.410;2024-02-21T15:49:02;703.27;;;518.87;;
5137;SDS011;53959;53.626;11.410;2024-02-21T15:51:28;703.47;;;519.97;;
5137;SDS011;53959;53.626;11.410;2024-02-21T15:53:55;711.23;;;523.70;;
5137;SDS011;53959;53.626;11.410;2024-02-21T15:56:21;703.80;;;516.23;;
5137;SDS011;53959;53.626;11.410;2024-02-21T15:58:46;700.17;;;513.97;;
5137;SDS011;53959;53.626;11.410;2024-02-21T16:01:12;697.20;;;512.40;;
5137;SDS011;53959;53.626;11.410;2024-02-21T16:03:40;713.47;;;523.63;;
5137;SDS011;53959;53.626;11.410;2024-02-21T16:06:05;714.40;;;521.20;;
5137;SDS011;53959;53.626;11.410;2024-02-21T16:08:32;709.20;;;517.60;;